MRISE LIMJ-LMML
Flight info
| Callsign | MRISE |
|---|---|
| Flight time | N/A |
| Altitude | 39000 |
| Route | N0460F390 UNITA DCT KONER DCT DEDOM DCT NUCVO DCT RUVIP DCT GIANO DCT PAL DCT MARON DCT GZO |
| Aircraft | B752/M-Q/L |
Departure
| Time | 2026-05-09 07:43 |
|---|---|
| Airport | Genoa Cristoforo Colombo Airport (LIMJ) |
Arrival
| Time | N/A |
|---|---|
| Airport | Malta International Airport (LMML) |
| Time | Latitude | Longitude | Altitude | Speed | Heading |
|---|---|---|---|---|---|
| 2026-05-09 07:17 | 44.41334 | 8.85286 | 21 ft | 0 kts | 16° |
| 2026-05-09 07:35 | 44.41342 | 8.85287 | 21 ft | 0 kts | 344° |
| 2026-05-09 07:36 | 44.41347 | 8.85281 | 21 ft | 0 kts | 302° |
| 2026-05-09 07:36 | 44.41345 | 8.85269 | 21 ft | 1 kts | 239° |
| 2026-05-09 07:36 | 44.41320 | 8.85242 | 21 ft | 9 kts | 225° |
| 2026-05-09 07:36 | 44.41313 | 8.85162 | 21 ft | 8 kts | 285° |
| 2026-05-09 07:37 | 44.41330 | 8.85080 | 21 ft | 9 kts | 287° |
| 2026-05-09 07:37 | 44.41336 | 8.84981 | 21 ft | 10 kts | 242° |
| 2026-05-09 07:37 | 44.41280 | 8.84940 | 21 ft | 9 kts | 199° |
| 2026-05-09 07:37 | 44.41225 | 8.84904 | 21 ft | 8 kts | 227° |
| 2026-05-09 07:38 | 44.41227 | 8.84817 | 21 ft | 10 kts | 289° |
| 2026-05-09 07:38 | 44.41246 | 8.84712 | 21 ft | 12 kts | 283° |
| 2026-05-09 07:38 | 44.41271 | 8.84582 | 21 ft | 15 kts | 287° |
| 2026-05-09 07:38 | 44.41302 | 8.84431 | 21 ft | 18 kts | 286° |
| 2026-05-09 07:39 | 44.41339 | 8.84252 | 21 ft | 19 kts | 285° |
| 2026-05-09 07:39 | 44.41372 | 8.84076 | 21 ft | 19 kts | 285° |
| 2026-05-09 07:39 | 44.41403 | 8.83910 | 21 ft | 18 kts | 284° |
| 2026-05-09 07:39 | 44.41432 | 8.83759 | 21 ft | 18 kts | 285° |
| 2026-05-09 07:40 | 44.41462 | 8.83607 | 21 ft | 17 kts | 285° |
| 2026-05-09 07:40 | 44.41488 | 8.83478 | 21 ft | 16 kts | 285° |
| 2026-05-09 07:40 | 44.41516 | 8.83340 | 21 ft | 16 kts | 286° |
| 2026-05-09 07:40 | 44.41542 | 8.83207 | 21 ft | 15 kts | 285° |
| 2026-05-09 07:41 | 44.41567 | 8.83074 | 21 ft | 15 kts | 285° |
| 2026-05-09 07:41 | 44.41591 | 8.82951 | 21 ft | 14 kts | 286° |
| 2026-05-09 07:41 | 44.41615 | 8.82830 | 21 ft | 13 kts | 286° |
| 2026-05-09 07:41 | 44.41638 | 8.82715 | 21 ft | 13 kts | 286° |
| 2026-05-09 07:42 | 44.41660 | 8.82606 | 21 ft | 12 kts | 283° |
| 2026-05-09 07:42 | 44.41633 | 8.82518 | 21 ft | 11 kts | 210° |
| 2026-05-09 07:42 | 44.41537 | 8.82517 | 21 ft | 15 kts | 136° |
| 2026-05-09 07:42 | 44.41483 | 8.82729 | 21 ft | 54 kts | 105° |
| 2026-05-09 07:43 | 44.41325 | 8.83541 | 23 ft | 140 kts | 104° |
| 2026-05-09 07:43 | 44.41141 | 8.84466 | 440 ft | 165 kts | 103° |
| 2026-05-09 07:43 | 44.40851 | 8.86011 | 1212 ft | 198 kts | 103° |
| 2026-05-09 07:43 | 44.39995 | 8.87859 | 2503 ft | 195 kts | 147° |
| 2026-05-09 07:44 | 44.38857 | 8.88313 | 3291 ft | 197 kts | 185° |
| 2026-05-09 07:44 | 44.37625 | 8.87623 | 4154 ft | 199 kts | 220° |
| 2026-05-09 07:44 | 44.36621 | 8.86372 | 5058 ft | 201 kts | 221° |
| 2026-05-09 07:44 | 44.35565 | 8.85120 | 5949 ft | 203 kts | 220° |